Time;durP1;ratioP1;P1;durP2;ratioP2;P2;SDS_P1;SDS_P2;PMS_P1;PMS_P2;Temp;Humidity;BMP_temperature;BMP_pressure;BME280_temperature;BME280_humidity;BME280_pressure;Samples;Min_cycle;Max_cycle;Signal;HPM_P1;HPM_P2
2022/10/17 00:00:29;;;;;;;6.75;5.20;;;;;;;15.16;93.58;101626.97;5021123;28;20950;-67
2022/10/17 00:02:55;;;;;;;6.88;5.03;;;;;;;15.11;93.31;101613.06;5044078;28;20025;-66
2022/10/17 00:05:21;;;;;;;6.43;5.47;;;;;;;15.13;93.46;101615.69;5041344;28;20087;-66
2022/10/17 00:07:46;;;;;;;7.53;5.30;;;;;;;15.13;93.44;101621.72;5042178;28;20508;-66
2022/10/17 00:10:12;;;;;;;8.25;5.03;;;;;;;15.12;93.54;101619.13;5036731;28;20060;-66
2022/10/17 00:12:37;;;;;;;9.30;5.20;;;;;;;15.13;93.61;101618.28;5042792;28;20037;-66
2022/10/17 00:15:04;;;;;;;6.60;5.13;;;;;;;15.09;93.78;101606.94;5040330;28;20111;-66
2022/10/17 00:17:30;;;;;;;7.32;5.22;;;;;;;15.11;93.86;101607.00;5040648;28;20025;-66
2022/10/17 00:19:58;;;;;;;8.43;4.82;;;;;;;15.12;94.24;101608.75;5042989;28;20059;-66
2022/10/17 00:22:23;;;;;;;8.13;4.57;;;;;;;15.11;94.04;101612.19;5043996;28;20480;-66
2022/10/17 00:24:49;;;;;;;9.50;5.20;;;;;;;15.08;94.41;101606.94;5039278;28;20040;-67
2022/10/17 00:27:14;;;;;;;9.02;5.05;;;;;;;15.10;94.50;101602.66;5037902;28;20026;-67
2022/10/17 00:29:39;;;;;;;9.25;4.80;;;;;;;15.10;94.67;101597.47;5041361;28;20064;-66
2022/10/17 00:32:05;;;;;;;6.72;4.88;;;;;;;15.10;94.29;101598.34;5045526;28;20147;-66
2022/10/17 00:34:30;;;;;;;8.20;5.13;;;;;;;15.09;94.33;101593.13;5042597;28;20505;-66
2022/10/17 00:36:56;;;;;;;10.05;5.72;;;;;;;15.08;94.13;101588.81;5023237;28;20061;-66
2022/10/17 00:39:22;;;;;;;6.18;5.03;;;;;;;15.06;94.68;101591.38;5043785;28;20037;-66
2022/10/17 00:41:47;;;;;;;7.75;5.47;;;;;;;15.04;94.96;101587.84;5042493;28;20060;-67
2022/10/17 00:44:28;;;;;;;7.13;5.53;;;;;;;15.12;94.89;101590.63;5046408;28;20029;-66
2022/10/17 00:46:54;;;;;;;9.20;5.50;;;;;;;15.05;94.66;101583.56;5042585;28;20620;-66
2022/10/17 00:49:23;;;;;;;5.95;5.05;;;;;;;15.07;94.90;101593.09;5042087;28;20032;-67
2022/10/17 00:51:52;;;;;;;7.00;5.45;;;;;;;15.03;95.20;101589.56;5046270;28;20413;-67
2022/10/17 00:54:21;;;;;;;9.02;5.40;;;;;;;15.02;95.52;101598.19;5040849;28;20021;-67
2022/10/17 00:56:48;;;;;;;7.35;5.40;;;;;;;14.99;95.54;101597.25;5039658;28;20025;-66
2022/10/17 00:59:16;;;;;;;8.80;5.18;;;;;;;15.01;95.45;101596.44;5039535;28;20025;-66
2022/10/17 01:01:49;;;;;;;9.18;5.43;;;;;;;15.02;95.91;101599.91;5039317;28;20108;-66
2022/10/17 01:04:15;;;;;;;8.32;5.53;;;;;;;14.98;95.38;101586.00;5038494;28;20122;-66
2022/10/17 01:06:40;;;;;;;8.20;5.65;;;;;;;15.01;95.54;101587.78;5027951;28;20876;-66
2022/10/17 01:09:06;;;;;;;11.55;5.40;;;;;;;14.97;96.19;101579.06;5042877;28;20033;-66
2022/10/17 01:12:12;;;;;;;11.50;5.53;;;;;;;15.08;95.69;101581.03;5019615;28;20106;-66
2022/10/17 01:14:52;;;;;;;7.72;6.32;;;;;;;15.02;96.68;101577.47;5040820;28;20899;-66
2022/10/17 01:17:51;;;;;;;9.85;6.10;;;;;;;15.06;96.38;101583.59;5042272;28;20103;-66
2022/10/17 01:20:32;;;;;;;10.43;5.75;;;;;;;15.06;96.79;101562.00;5041272;28;20029;-66
2022/10/17 01:23:09;;;;;;;6.30;5.55;;;;;;;15.03;97.13;101576.63;5039110;28;20104;-66
2022/10/17 01:25:55;;;;;;;7.40;6.47;;;;;;;15.04;97.64;101582.66;5039194;28;20036;-66
2022/10/17 01:28:45;;;;;;;7.65;6.32;;;;;;;15.06;97.89;101587.91;5039717;28;20037;-66
2022/10/17 01:31:16;;;;;;;8.43;6.30;;;;;;;15.05;98.31;101586.16;5042431;28;20016;-66
2022/10/17 01:33:47;;;;;;;13.73;6.22;;;;;;;15.03;98.86;101584.38;5038079;28;20033;-66
2022/10/17 01:36:36;;;;;;;12.15;7.05;;;;;;;15.11;98.66;101587.16;5039068;28;20036;-66
2022/10/17 01:39:19;;;;;;;11.65;6.90;;;;;;;15.08;98.93;101573.25;5033002;28;20152;-66
2022/10/17 01:42:04;;;;;;;12.32;6.47;;;;;;;15.05;99.62;101566.31;5038135;28;20072;-66
2022/10/17 01:44:58;;;;;;;8.40;6.50;;;;;;;15.06;99.46;101575.81;5044921;28;20577;-66
2022/10/17 01:47:30;;;;;;;8.98;6.82;;;;;;;15.08;100.00;101568.06;5042073;28;20049;-66
2022/10/17 01:50:01;;;;;;;11.45;7.93;;;;;;;15.04;100.00;101551.59;5023318;28;20029;-66
2022/10/17 01:52:33;;;;;;;11.25;7.20;;;;;;;15.09;100.00;101562.91;5041543;28;20025;-66
2022/10/17 01:55:24;;;;;;;9.88;6.72;;;;;;;15.14;99.98;101566.47;5038535;28;20062;-66
2022/10/17 01:57:53;;;;;;;9.73;7.38;;;;;;;15.10;100.00;101574.16;5033391;28;21294;-66
2022/10/17 02:00:25;;;;;;;8.85;7.28;;;;;;;15.12;100.00;101573.38;5044807;28;20121;-66
2022/10/17 02:03:00;;;;;;;10.68;7.50;;;;;;;15.13;100.00;101569.06;5039508;28;20033;-66
2022/10/17 02:05:31;;;;;;;9.60;7.63;;;;;;;15.13;100.00;101576.81;5037898;28;20028;-66
2022/10/17 02:07:57;;;;;;;12.70;8.57;;;;;;;15.11;100.00;101566.44;5043075;28;20025;-66
2022/10/17 02:10:31;;;;;;;11.15;7.78;;;;;;;15.16;100.00;101574.28;5040643;28;20044;-66
2022/10/17 02:13:08;;;;;;;13.77;7.78;;;;;;;15.12;100.00;101563.00;5037913;28;20056;-66
2022/10/17 02:15:42;;;;;;;13.48;7.38;;;;;;;15.14;100.00;101560.44;5037628;28;20024;-66
2022/10/17 02:18:18;;;;;;;8.15;7.03;;;;;;;15.16;100.00;101553.56;5041318;28;20479;-66
2022/10/17 02:20:46;;;;;;;11.77;8.40;;;;;;;15.12;100.00;101557.81;5045973;28;20021;-66
2022/10/17 02:23:29;;;;;;;10.07;7.37;;;;;;;15.16;100.00;101556.16;5041472;28;20055;-66
2022/10/17 02:26:04;;;;;;;9.05;7.45;;;;;;;15.17;100.00;101555.34;5044886;28;20287;-66
2022/10/17 02:28:38;;;;;;;10.55;7.45;;;;;;;15.15;100.00;101557.88;5041668;28;20024;-66
2022/10/17 02:31:20;;;;;;;9.55;7.57;;;;;;;15.15;100.00;101557.88;5041061;28;20411;-66
2022/10/17 02:33:57;;;;;;;14.85;7.65;;;;;;;15.14;100.00;101557.84;5018251;28;20034;-66
2022/10/17 02:36:28;;;;;;;11.77;7.82;;;;;;;15.13;100.00;101550.91;5024495;28;20087;-66
2022/10/17 02:38:55;;;;;;;8.55;7.32;;;;;;;15.13;100.00;101558.69;5038161;28;20029;-66
2022/10/17 02:41:23;;;;;;;12.02;7.32;;;;;;;15.13;100.00;101558.69;5040099;28;20037;-66
2022/10/17 02:43:49;;;;;;;10.38;7.82;;;;;;;15.10;100.00;101556.88;5037838;28;20025;-66
2022/10/17 02:46:21;;;;;;;9.50;7.43;;;;;;;15.14;100.00;101552.66;5040189;28;20104;-66
2022/10/17 02:48:54;;;;;;;12.50;8.00;;;;;;;15.18;100.00;101551.88;5039921;28;20025;-66
2022/10/17 02:51:27;;;;;;;13.85;8.00;;;;;;;15.17;100.00;101547.56;5043122;28;20029;-66
2022/10/17 02:54:07;;;;;;;10.57;7.78;;;;;;;15.19;100.00;101553.63;5043527;28;20051;-66
2022/10/17 02:56:38;;;;;;;9.20;7.45;;;;;;;15.18;100.00;101557.94;5042843;28;20068;-66
2022/10/17 02:59:07;;;;;;;14.02;8.23;;;;;;;15.16;100.00;101559.59;5043936;28;20037;-66
2022/10/17 03:01:35;;;;;;;14.45;7.97;;;;;;;15.16;100.00;101553.56;5027228;28;20096;-66
2022/10/17 03:04:12;;;;;;;9.77;7.60;;;;;;;15.17;100.00;101555.34;5038782;28;20029;-66
2022/10/17 03:06:40;;;;;;;9.70;7.03;;;;;;;15.14;100.00;101557.84;5044213;28;20032;-66
2022/10/17 03:09:06;;;;;;;10.45;7.72;;;;;;;15.14;100.00;101550.94;5042410;28;20065;-66
2022/10/17 03:11:32;;;;;;;10.25;7.35;;;;;;;15.14;100.00;101547.47;5044046;28;20059;-66
2022/10/17 03:13:58;;;;;;;12.57;7.80;;;;;;;15.19;100.00;101548.44;5044122;28;20109;-66
2022/10/17 03:16:23;;;;;;;8.60;6.82;;;;;;;15.18;100.00;101546.72;5040563;28;20395;-66
2022/10/17 03:18:49;;;;;;;12.55;7.18;;;;;;;15.19;100.00;101543.28;5043364;28;20064;-66
2022/10/17 03:21:14;;;;;;;12.90;7.38;;;;;;;15.20;100.00;101545.88;5044145;28;20021;-66
2022/10/17 03:23:39;;;;;;;13.90;7.50;;;;;;;15.19;100.00;101541.56;5042294;28;20041;-66
2022/10/17 03:26:06;;;;;;;8.13;7.22;;;;;;;15.20;100.00;101534.66;5025835;28;20028;-66
2022/10/17 03:28:31;;;;;;;11.93;7.47;;;;;;;15.26;100.00;101545.13;5040551;28;20036;-66
2022/10/17 03:30:56;;;;;;;9.27;7.07;;;;;;;15.23;100.00;101539.91;5045829;28;20037;-66
2022/10/17 03:33:22;;;;;;;13.10;7.38;;;;;;;15.26;100.00;101543.41;5025533;28;20108;-66
2022/10/17 03:35:47;;;;;;;12.68;7.28;;;;;;;15.28;100.00;101541.72;5022525;28;20032;-66
2022/10/17 03:38:13;;;;;;;10.15;6.75;;;;;;;15.29;100.00;101550.38;5049981;28;20116;-66
2022/10/17 03:40:38;;;;;;;9.60;7.70;;;;;;;15.27;100.00;101536.50;5040093;28;20431;-66
2022/10/17 03:43:03;;;;;;;8.45;6.80;;;;;;;15.32;100.00;101544.38;5044897;28;20404;-66
2022/10/17 03:45:29;;;;;;;11.00;7.53;;;;;;;15.33;100.00;101549.59;5041077;28;20044;-66
2022/10/17 03:47:54;;;;;;;11.13;7.45;;;;;;;15.33;100.00;101540.94;5044601;28;20501;-66
2022/10/17 03:50:20;;;;;;;8.27;7.18;;;;;;;15.33;100.00;101536.63;5021670;28;20124;-66
2022/10/17 03:52:47;;;;;;;14.52;7.43;;;;;;;15.32;100.00;101534.03;5043997;28;20086;-66
2022/10/17 03:55:12;;;;;;;10.82;6.97;;;;;;;15.31;100.00;101527.97;5042664;28;20119;-66
2022/10/17 03:57:38;;;;;;;12.32;7.30;;;;;;;15.36;100.00;101547.06;5039839;28;20094;-66
2022/10/17 04:00:04;;;;;;;11.35;7.75;;;;;;;15.37;100.00;101550.53;5041984;28;20040;-66
2022/10/17 04:02:29;;;;;;;10.05;6.93;;;;;;;15.37;100.00;101542.75;5044545;28;20831;-66
2022/10/17 04:04:55;;;;;;;13.65;6.97;;;;;;;15.39;100.00;101541.94;5023797;28;20112;-66
2022/10/17 04:07:20;;;;;;;10.63;7.35;;;;;;;15.40;100.00;101554.03;5042957;28;20502;-66
2022/10/17 04:09:45;;;;;;;10.98;7.35;;;;;;;15.40;100.00;101558.34;5038311;28;20025;-66
2022/10/17 04:12:11;;;;;;;8.25;6.80;;;;;;;15.40;100.00;101561.81;5021924;28;20576;-66
2022/10/17 04:14:37;;;;;;;10.27;7.45;;;;;;;15.37;100.00;101559.19;5035999;28;20033;-66
2022/10/17 04:17:03;;;;;;;11.45;7.30;;;;;;;15.41;100.00;101557.50;5025955;28;20399;-66
2022/10/17 04:19:28;;;;;;;10.50;6.97;;;;;;;15.44;100.00;101566.22;5047748;28;20021;-66
2022/10/17 04:21:53;;;;;;;10.70;6.50;;;;;;;15.43;100.00;101572.25;5017073;28;20107;-66
2022/10/17 04:24:19;;;;;;;11.02;6.90;;;;;;;15.45;100.00;101567.97;5045730;28;20446;-66
2022/10/17 04:26:44;;;;;;;11.13;7.05;;;;;;;15.45;100.00;101573.16;5035877;28;20108;-66
2022/10/17 04:29:10;;;;;;;8.93;6.22;;;;;;;15.47;100.00;101581.84;5045519;28;20065;-66
2022/10/17 04:31:36;;;;;;;10.38;6.93;;;;;;;15.47;100.00;101580.94;5041383;28;20021;-67
2022/10/17 04:34:01;;;;;;;10.60;6.57;;;;;;;15.48;100.00;101572.34;5043566;28;20400;-66
2022/10/17 04:36:26;;;;;;;11.77;6.70;;;;;;;15.49;100.00;101582.75;5046998;28;20067;-66
2022/10/17 04:38:52;;;;;;;11.10;6.60;;;;;;;15.49;100.00;101568.91;5046417;28;20028;-66
2022/10/17 04:41:17;;;;;;;11.77;6.75;;;;;;;15.49;100.00;101580.16;5038047;28;20045;-66
2022/10/17 04:43:44;;;;;;;10.15;6.57;;;;;;;15.48;100.00;101591.38;5038907;28;20040;-66
2022/10/17 04:46:12;;;;;;;12.02;6.70;;;;;;;15.51;100.00;101604.38;5044358;28;20025;-66
2022/10/17 04:48:39;;;;;;;10.18;6.75;;;;;;;15.50;100.00;101613.00;5037660;28;20024;-66
2022/10/17 04:51:07;;;;;;;14.32;6.55;;;;;;;15.49;100.00;101611.25;5039310;28;20033;-66
2022/10/17 04:53:35;;;;;;;10.30;6.40;;;;;;;15.50;100.00;101607.81;5040586;28;20398;-66
2022/10/17 04:56:01;;;;;;;16.15;6.60;;;;;;;15.51;100.00;101608.69;5041783;28;20115;-66
2022/10/17 04:58:29;;;;;;;13.77;6.57;;;;;;;15.52;100.00;101616.47;5044315;28;20115;-66
2022/10/17 05:00:55;;;;;;;8.33;6.30;;;;;;;15.51;100.00;101613.88;5043365;28;20063;-66
2022/10/17 05:03:20;;;;;;;8.35;6.20;;;;;;;15.51;100.00;101616.47;5042141;28;20323;-66
2022/10/17 05:05:46;;;;;;;11.50;6.35;;;;;;;15.52;100.00;101615.59;5041547;28;20124;-66
2022/10/17 05:08:11;;;;;;;11.90;6.20;;;;;;;15.49;100.00;101616.44;5039243;28;20028;-66
2022/10/17 05:10:40;;;;;;;8.68;6.53;;;;;;;15.52;100.00;101620.78;5047034;28;20029;-66
2022/10/17 05:13:07;;;;;;;13.07;6.38;;;;;;;15.53;100.00;101620.84;5037950;28;20072;-66
2022/10/17 05:15:33;;;;;;;11.98;7.32;;;;;;;15.54;100.00;101616.53;5037931;28;20031;-67
2022/10/17 05:17:58;;;;;;;10.15;6.30;;;;;;;15.55;100.00;101606.19;5023691;28;20033;-66
2022/10/17 05:20:24;;;;;;;9.68;5.93;;;;;;;15.54;100.00;101619.13;5045886;28;20060;-66
2022/10/17 05:22:49;;;;;;;9.50;6.28;;;;;;;15.54;100.00;101614.81;5020182;28;20397;-66
2022/10/17 05:25:15;;;;;;;12.25;6.07;;;;;;;15.53;100.00;101613.06;5036026;28;20056;-66
2022/10/17 05:27:40;;;;;;;13.15;6.65;;;;;;;15.55;100.00;101618.28;5040347;28;20028;-67
2022/10/17 05:30:06;;;;;;;8.63;6.38;;;;;;;15.56;100.00;101628.66;5042758;28;20037;-66
2022/10/17 05:32:32;;;;;;;11.30;6.72;;;;;;;15.56;100.00;101625.19;5043827;28;20013;-66
2022/10/17 05:34:57;;;;;;;12.48;6.13;;;;;;;15.59;100.00;101622.66;5039760;28;20083;-66
2022/10/17 05:37:23;;;;;;;12.23;6.38;;;;;;;15.59;100.00;101629.56;5026450;28;20434;-66
2022/10/17 05:39:48;;;;;;;11.57;6.47;;;;;;;15.58;100.00;101628.69;5040270;28;20376;-66
2022/10/17 05:42:13;;;;;;;8.32;6.40;;;;;;;15.57;100.00;101625.22;5018444;28;20507;-66
2022/10/17 05:44:40;;;;;;;11.63;6.35;;;;;;;15.60;100.00;101631.34;5041191;28;20088;-66
2022/10/17 05:47:06;;;;;;;9.38;6.25;;;;;;;15.60;100.00;101636.53;5026139;28;20029;-66
2022/10/17 05:49:31;;;;;;;11.27;6.50;;;;;;;15.60;100.00;101641.72;5039518;28;20026;-66
2022/10/17 05:51:57;;;;;;;9.80;6.45;;;;;;;15.60;100.00;101642.56;5053024;28;20039;-66
2022/10/17 05:54:22;;;;;;;10.27;6.13;;;;;;;15.61;100.00;101641.72;5054424;28;20037;-66
2022/10/17 05:56:52;;;;;;;11.63;6.65;;;;;;;15.59;100.00;101643.41;5062281;28;20422;-66
2022/10/17 05:59:17;;;;;;;11.60;6.65;;;;;;;15.62;100.00;101637.41;5051359;28;20021;-66
2022/10/17 06:01:43;;;;;;;12.77;6.15;;;;;;;15.66;100.00;101641.84;5052643;28;20036;-66
2022/10/17 06:04:08;;;;;;;13.20;6.43;;;;;;;15.65;100.00;101646.19;5043812;28;20032;-66
2022/10/17 06:06:36;;;;;;;9.60;5.90;;;;;;;15.64;100.00;101636.63;5044681;28;20021;-66
2022/10/17 06:09:03;;;;;;;11.57;6.68;;;;;;;15.69;100.00;101642.78;5039217;28;20494;-66
2022/10/17 06:11:28;;;;;;;14.75;6.53;;;;;;;15.69;100.00;101645.38;5019800;28;20064;-66
2022/10/17 06:13:53;;;;;;;9.60;5.93;;;;;;;15.72;100.00;101649.75;5059339;28;20021;-66
2022/10/17 06:16:19;;;;;;;9.85;6.07;;;;;;;15.73;100.00;101643.72;5052388;28;20036;-66
2022/10/17 06:18:44;;;;;;;9.15;5.55;;;;;;;15.73;100.00;101641.13;5063039;28;20532;-66
2022/10/17 06:21:11;;;;;;;9.35;6.15;;;;;;;15.73;100.00;101648.91;5066384;28;20071;-66
2022/10/17 06:23:37;;;;;;;12.02;5.82;;;;;;;15.75;100.00;101652.41;5059223;28;20025;-65
2022/10/17 06:26:04;;;;;;;11.27;6.32;;;;;;;15.74;100.00;101656.72;5055498;28;20494;-66
2022/10/17 06:28:30;;;;;;;13.30;6.25;;;;;;;15.76;100.00;101659.31;5060730;28;20387;-66
2022/10/17 06:30:55;;;;;;;14.15;6.25;;;;;;;15.77;100.00;101655.88;5050111;28;20483;-66
2022/10/17 06:33:22;;;;;;;11.57;5.80;;;;;;;15.78;100.00;101655.06;5044420;28;20051;-66
2022/10/17 06:35:54;;;;;;;12.38;6.10;;;;;;;15.79;100.00;101657.69;5045603;28;20499;-66
2022/10/17 06:38:21;;;;;;;10.60;6.20;;;;;;;15.78;100.00;101655.06;5049772;28;20029;-66
2022/10/17 06:40:46;;;;;;;9.65;6.53;;;;;;;15.80;100.00;101656.81;5052018;28;20483;-66
2022/10/17 06:43:12;;;;;;;10.18;6.10;;;;;;;15.79;100.00;101657.69;5052580;28;20037;-66
2022/10/17 06:45:38;;;;;;;10.70;5.43;;;;;;;15.82;100.00;101662.03;5054816;28;20032;-66
2022/10/17 06:48:04;;;;;;;9.00;5.68;;;;;;;15.85;100.00;101662.09;5050046;28;20034;-66
2022/10/17 06:50:30;;;;;;;10.10;5.88;;;;;;;15.84;100.00;101662.09;5054408;28;20080;-66
2022/10/17 06:52:55;;;;;;;14.65;6.20;;;;;;;15.83;100.00;101671.56;5061163;28;20032;-66
2022/10/17 06:55:20;;;;;;;10.20;5.82;;;;;;;15.87;100.00;101675.97;5050009;28;20029;-66
2022/10/17 06:57:46;;;;;;;7.63;5.85;;;;;;;15.89;100.00;101684.63;5021597;28;20033;-66
2022/10/17 07:00:12;;;;;;;10.77;5.85;;;;;;;15.88;100.00;101677.72;5037278;28;20476;-66
2022/10/17 07:02:37;;;;;;;11.35;6.10;;;;;;;15.93;100.00;101680.41;5049087;28;20099;-66
2022/10/17 07:05:02;;;;;;;9.65;5.50;;;;;;;15.94;100.00;101676.97;5025406;28;20025;-66
2022/10/17 07:07:31;;;;;;;11.20;6.22;;;;;;;15.96;100.00;101677.88;5040498;28;20036;-66
2022/10/17 07:09:57;;;;;;;7.82;5.90;;;;;;;15.97;100.00;101677.91;5049887;28;20036;-66
2022/10/17 07:12:23;;;;;;;11.23;5.68;;;;;;;15.99;100.00;101680.50;5057814;28;20640;-66
2022/10/17 07:14:49;;;;;;;10.18;6.00;;;;;;;15.99;100.00;101686.56;5044410;28;20037;-66
2022/10/17 07:17:18;;;;;;;13.35;5.93;;;;;;;16.01;100.00;101691.78;5047879;28;20032;-66
2022/10/17 07:19:43;;;;;;;7.57;5.47;;;;;;;16.01;100.00;101684.00;5054804;28;20039;-66
2022/10/17 07:22:10;;;;;;;8.98;5.95;;;;;;;16.02;100.00;101689.25;5053688;28;20025;-66
2022/10/17 07:24:35;;;;;;;12.15;5.93;;;;;;;16.04;100.00;101687.53;5057181;28;20398;-66
2022/10/17 07:27:01;;;;;;;12.43;5.88;;;;;;;16.07;100.00;101686.72;5050721;28;20360;-66
2022/10/17 07:29:26;;;;;;;15.40;5.80;;;;;;;16.07;100.00;101695.38;5057317;28;20028;-66
2022/10/17 07:31:51;;;;;;;9.27;5.50;;;;;;;16.05;100.00;101696.19;5052314;28;20025;-66
2022/10/17 07:34:17;;;;;;;9.98;5.78;;;;;;;16.09;100.00;101700.59;5048457;28;20036;-66
2022/10/17 07:36:43;;;;;;;10.20;6.38;;;;;;;16.08;100.00;101719.63;5046076;28;20539;-66
2022/10/17 07:39:08;;;;;;;7.88;5.70;;;;;;;16.12;100.00;101743.88;5051424;28;20025;-66
2022/10/17 07:41:34;;;;;;;11.73;6.18;;;;;;;16.13;100.00;101762.06;5033122;28;20032;-66
2022/10/17 07:43:59;;;;;;;9.25;5.75;;;;;;;16.12;100.00;101794.06;5044006;28;20032;-66
2022/10/17 07:46:25;;;;;;;7.50;5.38;;;;;;;16.13;100.00;101823.47;5050447;28;20040;-66
2022/10/17 07:48:50;;;;;;;11.65;5.75;;;;;;;16.13;100.00;101820.88;5044719;28;20025;-66
2022/10/17 07:51:17;;;;;;;7.72;5.68;;;;;;;16.14;100.00;101841.69;5040131;28;20484;-66
2022/10/17 07:53:43;;;;;;;12.55;6.00;;;;;;;16.14;100.00;101866.72;5045104;28;20027;-67
2022/10/17 07:56:09;;;;;;;15.25;6.28;;;;;;;16.12;100.00;101863.25;5042733;28;20040;-66
2022/10/17 07:58:36;;;;;;;15.02;7.10;;;;;;;16.11;100.00;101862.38;5061718;28;20111;-67
2022/10/17 08:01:03;;;;;;;15.50;7.68;;;;;;;16.12;100.00;101853.72;5052129;28;20877;-68
2022/10/17 08:03:29;;;;;;;13.50;7.88;;;;;;;16.11;100.00;101830.34;5063464;28;20024;-69
2022/10/17 08:05:58;;;;;;;11.70;6.47;;;;;;;16.13;100.00;101839.91;5058169;28;20020;-68
2022/10/17 08:08:24;;;;;;;12.00;6.10;;;;;;;16.11;100.00;101845.94;5059819;28;20020;-68
2022/10/17 08:10:49;;;;;;;9.18;6.10;;;;;;;16.12;100.00;101837.28;5056436;28;20040;-67
2022/10/17 08:13:15;;;;;;;11.25;6.10;;;;;;;16.11;100.00;101832.94;5044826;28;20045;-68
2022/10/17 08:15:40;;;;;;;9.90;5.82;;;;;;;16.11;100.00;101827.75;5052949;28;20100;-68
2022/10/17 08:18:06;;;;;;;8.85;5.57;;;;;;;16.12;100.00;101826.91;5052206;28;20037;-67
2022/10/17 08:20:31;;;;;;;11.95;6.15;;;;;;;16.14;100.00;101840.78;5054542;28;20029;-67
2022/10/17 08:22:56;;;;;;;9.27;5.95;;;;;;;16.12;100.00;101864.13;5051521;28;20395;-67
2022/10/17 08:25:22;;;;;;;16.60;6.82;;;;;;;16.11;100.00;101882.25;5045855;28;20041;-67
2022/10/17 08:27:48;;;;;;;9.95;6.53;;;;;;;16.12;100.00;101925.50;5050871;28;20110;-67
2022/10/17 08:30:14;;;;;;;12.05;6.95;;;;;;;16.12;100.00;101934.16;5031172;28;20024;-67
2022/10/17 08:32:40;;;;;;;8.63;6.50;;;;;;;16.12;100.00;101917.72;5054199;28;20382;-68
2022/10/17 08:35:06;;;;;;;13.63;7.20;;;;;;;16.13;100.00;101928.13;5053288;28;20035;-68
2022/10/17 08:37:31;;;;;;;14.23;6.93;;;;;;;16.14;100.00;101910.84;5051164;28;20033;-69
2022/10/17 08:39:56;;;;;;;11.60;6.90;;;;;;;16.13;100.00;101914.28;5058772;28;20032;-69
2022/10/17 08:42:44;;;;;;;8.18;6.18;;;;;;;16.14;100.00;101903.06;5051146;28;20057;-68
2022/10/17 08:45:25;;;;;;;9.13;6.28;;;;;;;16.16;100.00;101901.38;5047947;28;20508;-67
2022/10/17 08:47:59;;;;;;;13.77;6.53;;;;;;;16.10;100.00;101883.97;5054444;28;20036;-67
2022/10/17 08:51:15;;;;;;;13.30;6.15;;;;;;;16.16;100.00;101897.06;5043910;28;20017;-68
2022/10/17 08:54:16;;;;;;;14.43;6.72;;;;;;;16.16;100.00;101904.00;5022348;28;20293;-67
2022/10/17 08:56:46;;;;;;;8.82;6.13;;;;;;;16.13;100.00;101875.38;5054943;28;20036;-68
2022/10/17 08:59:25;;;;;;;9.50;6.13;;;;;;;16.14;100.00;101900.47;5055686;28;20036;-68
2022/10/17 09:02:35;;;;;;;11.30;6.20;;;;;;;16.17;100.00;101895.34;5061651;28;20120;-68
2022/10/17 09:05:06;;;;;;;8.32;5.78;;;;;;;16.15;100.00;101899.66;5060651;28;20032;-68
2022/10/17 09:07:43;;;;;;;9.88;6.25;;;;;;;16.17;100.00;101897.94;5060562;28;20029;-68
2022/10/17 09:10:24;;;;;;;11.77;6.63;;;;;;;16.16;100.00;101901.38;5044825;28;20109;-68
2022/10/17 09:12:57;;;;;;;11.82;6.45;;;;;;;16.15;100.00;101910.91;5056765;28;20048;-68
2022/10/17 09:16:01;;;;;;;12.52;7.10;;;;;;;16.20;100.00;101927.44;5048968;28;20108;-68
2022/10/17 09:18:32;;;;;;;8.02;6.22;;;;;;;16.16;100.00;101954.16;5028292;28;20076;-68
2022/10/17 09:21:20;;;;;;;11.18;6.75;;;;;;;16.18;100.00;101942.09;5045395;28;20474;-69
2022/10/17 09:23:51;;;;;;;11.93;6.82;;;;;;;16.18;100.00;101972.34;5046361;28;20476;-68
2022/10/17 09:26:17;;;;;;;9.38;6.85;;;;;;;16.16;100.00;101961.94;5051650;28;20049;-69
2022/10/17 09:28:45;;;;;;;11.45;7.03;;;;;;;16.16;100.00;101958.47;5048818;28;20386;-69
2022/10/17 09:31:21;;;;;;;10.82;6.90;;;;;;;16.17;100.00;101942.94;5054372;28;20032;-69
2022/10/17 09:33:49;;;;;;;10.18;6.55;;;;;;;16.17;100.00;101910.94;5046385;28;20024;-69
2022/10/17 09:36:31;;;;;;;9.75;6.47;;;;;;;16.17;100.00;101870.28;5051875;28;20039;-69
2022/10/17 09:38:59;;;;;;;9.75;6.22;;;;;;;16.19;100.00;101880.69;5042859;28;20480;-68
2022/10/17 09:41:32;;;;;;;8.15;6.05;;;;;;;16.20;100.00;101872.06;5048608;28;20099;-68
2022/10/17 09:44:12;;;;;;;7.88;5.75;;;;;;;16.23;100.00;101882.50;5039676;28;20029;-68
2022/10/17 09:46:38;;;;;;;11.02;6.28;;;;;;;16.22;100.00;101893.75;5037950;28;20025;-68
2022/10/17 09:49:30;;;;;;;7.28;6.00;;;;;;;16.24;100.00;101918.88;5043054;28;20041;-68
2022/10/17 09:51:56;;;;;;;8.70;6.05;;;;;;;16.24;100.00;101937.03;5053304;28;20103;-68
2022/10/17 09:55:14;;;;;;;8.88;6.07;;;;;;;16.27;100.00;101954.41;5048810;28;20459;-68
2022/10/17 09:58:00;;;;;;;8.25;5.97;;;;;;;16.26;100.00;101931.88;4988087;28;20056;-69
2022/10/17 10:00:32;;;;;;;9.27;6.50;;;;;;;16.23;100.00;101913.66;5050704;28;20024;-68
2022/10/17 10:03:17;;;;;;;8.70;6.50;;;;;;;16.28;100.00;101899.94;5055414;28;20029;-69
2022/10/17 10:05:57;;;;;;;8.30;6.30;;;;;;;16.29;100.00;101903.41;5050906;28;20387;-69
2022/10/17 10:08:26;;;;;;;8.93;6.43;;;;;;;16.27;100.00;101905.09;5053359;28;20302;-69
2022/10/17 10:11:07;;;;;;;9.48;6.97;;;;;;;16.30;100.00;101918.13;5053809;28;20028;-69
2022/10/17 10:13:34;;;;;;;11.35;6.28;;;;;;;16.30;100.00;101931.09;5055086;28;20027;-69
2022/10/17 10:16:23;;;;;;;8.63;6.35;;;;;;;16.33;100.00;101934.66;5046461;28;20033;-69
2022/10/17 10:18:49;;;;;;;10.23;6.70;;;;;;;16.31;100.00;101932.84;5031880;28;20024;-69
2022/10/17 10:21:19;;;;;;;10.00;6.35;;;;;;;16.33;100.00;101939.84;5046687;28;20033;-69
2022/10/17 10:23:45;;;;;;;;;;;;;;;16.43;100.00;101942.63;5047850;28;20070;-69
2022/10/17 10:26:21;;;;;;;11.32;7.07;;;;;;;16.38;100.00;101946.81;5048771;28;19940;-69
2022/10/17 10:28:53;;;;;;;9.90;6.57;;;;;;;16.40;100.00;101964.22;5042433;28;20025;-69
2022/10/17 10:31:26;;;;;;;12.07;7.10;;;;;;;16.38;100.00;101960.72;5043600;28;20056;-69
2022/10/17 10:33:52;;;;;;;9.60;6.55;;;;;;;16.40;100.00;101976.31;5046248;28;20074;-69
2022/10/17 10:36:20;;;;;;;10.13;7.50;;;;;;;16.40;100.00;101979.78;5063279;28;20033;-69
2022/10/17 10:38:53;;;;;;;11.70;7.30;;;;;;;16.44;100.00;101986.81;5056898;28;20390;-69
2022/10/17 10:41:18;;;;;;;10.90;7.50;;;;;;;16.43;100.00;101990.22;5062677;28;20032;-69
2022/10/17 10:43:50;;;;;;;8.75;7.75;;;;;;;16.45;100.00;101990.28;5050886;28;20035;-69
2022/10/17 10:46:27;;;;;;;10.00;7.68;;;;;;;16.48;100.00;102003.31;5049658;28;20078;-68
2022/10/17 10:49:00;;;;;;;10.15;7.65;;;;;;;16.47;100.00;102006.75;5042291;28;20484;-68
2022/10/17 10:51:32;;;;;;;10.43;7.40;;;;;;;16.46;100.00;102020.59;5045989;28;20024;-68
2022/10/17 10:54:18;;;;;;;8.65;6.85;;;;;;;16.48;100.00;102026.69;5046034;28;20021;-68
2022/10/17 10:56:53;;;;;;;13.43;6.63;;;;;;;16.47;100.00;102030.13;5044013;28;20104;-68
2022/10/17 10:59:34;;;;;;;11.50;7.15;;;;;;;16.46;100.00;102031.84;5050211;28;20032;-68
2022/10/17 11:02:24;;;;;;;11.85;6.97;;;;;;;16.47;100.00;102031.00;5051616;28;20028;-68
2022/10/17 11:05:05;;;;;;;13.30;7.35;;;;;;;16.47;100.00;102027.53;5055133;28;20502;-68
2022/10/17 11:07:37;;;;;;;8.90;6.60;;;;;;;16.44;100.00;102032.63;5059722;28;20036;-68
2022/10/17 11:10:20;;;;;;;9.18;6.57;;;;;;;16.46;100.00;102033.56;5054703;28;20029;-68
2022/10/17 11:12:53;;;;;;;10.02;6.47;;;;;;;16.46;100.00;102037.03;5043072;28;20052;-68
2022/10/17 11:16:07;;;;;;;8.00;6.40;;;;;;;16.48;100.00;102040.53;5038070;28;20032;-68
2022/10/17 11:18:49;;;;;;;10.38;6.45;;;;;;;16.46;100.00;102043.94;4991200;28;20030;-68
2022/10/17 11:21:22;;;;;;;9.60;6.75;;;;;;;16.47;100.00;102050.88;5049922;28;20456;-68
2022/10/17 11:24:09;;;;;;;9.50;6.20;;;;;;;16.47;100.00;102058.69;5044232;28;20017;-68
2022/10/17 11:26:43;;;;;;;9.25;6.40;;;;;;;16.47;100.00;102061.28;5044952;28;20039;-68
2022/10/17 11:29:11;;;;;;;12.20;6.97;;;;;;;16.44;100.00;102063.78;5055452;28;20116;-68